createdAt,value
2022-12-04T00:01:14.383Z,14.60
2022-12-04T00:03:42.270Z,13.63
2022-12-04T00:06:11.813Z,13.73
2022-12-04T00:08:40.386Z,13.63
2022-12-04T00:11:11.591Z,14.40
2022-12-04T00:13:39.917Z,13.95
2022-12-04T00:16:09.611Z,12.73
2022-12-04T00:18:37.502Z,14.25
2022-12-04T00:21:06.168Z,13.25
2022-12-04T00:23:34.796Z,14.57
2022-12-04T00:26:03.258Z,13.85
2022-12-04T00:28:32.903Z,12.27
2022-12-04T00:31:00.794Z,15.10
2022-12-04T00:33:28.576Z,14.43
2022-12-04T00:36:00.346Z,13.25
2022-12-04T00:38:28.822Z,13.55
2022-12-04T00:40:56.833Z,13.77
2022-12-04T00:43:25.182Z,13.15
2022-12-04T00:45:54.388Z,12.25
2022-12-04T00:48:22.308Z,13.50
2022-12-04T00:50:50.225Z,14.25
2022-12-04T00:53:18.109Z,13.00
2022-12-04T00:55:45.894Z,14.77
2022-12-04T00:58:14.189Z,13.30
2022-12-04T01:00:43.605Z,13.73
2022-12-04T01:03:13.007Z,13.55
2022-12-04T01:08:09.647Z,13.48
2022-12-04T01:10:39.596Z,15.13
2022-12-04T01:13:07.455Z,13.80
2022-12-04T01:15:38.904Z,13.13
2022-12-04T01:18:06.785Z,15.55
2022-12-04T01:20:35.898Z,14.02
2022-12-04T01:23:03.795Z,14.68
2022-12-04T01:25:31.595Z,16.40
2022-12-04T01:27:59.425Z,13.27
2022-12-04T01:30:27.166Z,15.32
2022-12-04T01:32:54.985Z,14.73
2022-12-04T01:35:22.780Z,15.25
2022-12-04T01:37:51.881Z,14.50
2022-12-04T01:40:19.638Z,15.40
2022-12-04T01:42:47.405Z,14.55
2022-12-04T01:45:41.165Z,14.88
2022-12-04T01:48:16.026Z,14.85
2022-12-04T01:50:45.150Z,13.90
2022-12-04T01:53:15.071Z,16.55
2022-12-04T01:55:44.639Z,14.60
2022-12-04T01:58:12.590Z,13.95
2022-12-04T02:00:40.853Z,17.65
2022-12-04T02:03:08.819Z,14.23
2022-12-04T02:05:36.689Z,15.35
2022-12-04T02:08:05.878Z,14.70
2022-12-04T02:10:47.999Z,16.88
2022-12-04T02:13:21.779Z,13.77
2022-12-04T02:15:54.728Z,14.98
2022-12-04T02:18:31.187Z,14.38
2022-12-04T02:21:03.350Z,15.30
2022-12-04T02:24:01.246Z,13.55
2022-12-04T02:26:43.556Z,13.65
2022-12-04T02:29:22.702Z,12.65
2022-12-04T02:31:56.680Z,12.75
2022-12-04T02:34:29.229Z,12.63
2022-12-04T02:37:01.763Z,13.35
2022-12-04T02:39:35.642Z,14.20
2022-12-04T02:42:11.400Z,14.60
2022-12-04T02:44:45.349Z,15.25
2022-12-04T02:47:17.320Z,13.88
2022-12-04T02:49:48.049Z,15.52
2022-12-04T02:52:19.538Z,14.95
2022-12-04T02:54:51.486Z,13.07
2022-12-04T02:57:23.067Z,16.13
2022-12-04T02:59:54.856Z,16.02
2022-12-04T03:02:28.483Z,14.88
2022-12-04T03:04:59.089Z,13.73
2022-12-04T03:07:32.117Z,14.80
2022-12-04T03:10:03.789Z,14.60
2022-12-04T03:12:40.949Z,15.10
2022-12-04T03:15:17.333Z,14.35
2022-12-04T03:17:56.254Z,12.60
2022-12-04T03:20:25.073Z,15.80
2022-12-04T03:22:57.616Z,11.68
2022-12-04T03:25:33.150Z,13.63
2022-12-04T03:28:05.061Z,13.30
2022-12-04T03:30:40.355Z,12.32
2022-12-04T03:33:13.164Z,12.20
2022-12-04T03:35:45.960Z,12.15
2022-12-04T03:38:19.673Z,12.15
2022-12-04T03:40:55.199Z,11.38
2022-12-04T03:43:29.822Z,12.10
2022-12-04T03:46:05.186Z,13.45
2022-12-04T03:48:41.964Z,13.68
2022-12-04T03:51:16.161Z,12.45
2022-12-04T03:53:50.576Z,11.73
2022-12-04T03:56:20.058Z,12.52
2022-12-04T03:58:54.880Z,11.93
2022-12-04T04:01:29.251Z,11.07
2022-12-04T04:04:00.946Z,8.55
2022-12-04T04:06:33.530Z,8.23
2022-12-04T04:09:08.698Z,11.45
2022-12-04T04:11:41.439Z,10.15
2022-12-04T04:14:33.199Z,10.02
2022-12-04T04:17:23.627Z,10.93
2022-12-04T04:20:14.084Z,10.27
2022-12-04T04:22:59.511Z,10.80
2022-12-04T04:25:28.920Z,9.93
2022-12-04T04:27:58.797Z,9.23
2022-12-04T04:30:28.403Z,9.82
2022-12-04T04:33:04.968Z,10.30
2022-12-04T04:35:42.660Z,9.82
2022-12-04T04:38:17.552Z,10.00
2022-12-04T04:40:53.380Z,10.70
2022-12-04T04:43:26.094Z,8.98
2022-12-04T04:45:57.706Z,9.60
2022-12-04T04:48:30.366Z,9.02
2022-12-04T04:51:01.175Z,11.38
2022-12-04T04:53:34.618Z,11.00
2022-12-04T04:56:03.520Z,9.63
2022-12-04T04:58:31.341Z,10.68
2022-12-04T05:01:01.597Z,9.80
2022-12-04T05:03:31.290Z,10.57
2022-12-04T05:05:59.081Z,10.32
2022-12-04T05:08:26.928Z,10.30
2022-12-04T05:10:54.685Z,9.77
2022-12-04T05:13:22.984Z,10.18
2022-12-04T05:15:58.343Z,11.50
2022-12-04T05:18:26.467Z,10.25
2022-12-04T05:20:54.998Z,9.52
2022-12-04T05:23:23.203Z,10.35
2022-12-04T05:25:51.086Z,10.55
2022-12-04T05:28:18.847Z,10.15
2022-12-04T05:30:46.780Z,9.98
2022-12-04T05:33:14.679Z,10.38
2022-12-04T05:35:42.448Z,10.23
2022-12-04T05:38:11.599Z,9.90
2022-12-04T05:40:39.389Z,10.77
2022-12-04T05:43:07.129Z,10.43
2022-12-04T05:45:34.892Z,10.80
2022-12-04T05:48:02.637Z,9.52
2022-12-04T05:50:30.371Z,10.15
2022-12-04T05:52:58.384Z,9.77
2022-12-04T05:55:27.506Z,9.55
2022-12-04T05:57:55.243Z,9.88
2022-12-04T06:00:23.215Z,8.48
2022-12-04T06:02:51.010Z,8.98
2022-12-04T06:05:18.975Z,9.27
2022-12-04T06:07:46.781Z,9.45
2022-12-04T06:10:14.688Z,8.63
2022-12-04T06:12:43.791Z,9.82
2022-12-04T06:15:12.131Z,7.85
2022-12-04T06:17:39.886Z,9.70
2022-12-04T06:20:11.685Z,8.27
2022-12-04T06:22:39.890Z,8.95
2022-12-04T06:25:08.949Z,7.80
2022-12-04T06:27:36.671Z,8.02
2022-12-04T06:30:06.937Z,6.82
2022-12-04T06:32:34.738Z,8.77
2022-12-04T06:35:02.943Z,7.45
2022-12-04T06:37:30.868Z,8.10
2022-12-04T06:39:58.925Z,8.18
2022-12-04T06:42:26.967Z,8.20
2022-12-04T06:44:54.772Z,8.38
2022-12-04T06:47:23.851Z,7.90
2022-12-04T06:49:52.300Z,8.45
2022-12-04T06:52:20.076Z,8.03
2022-12-04T06:54:47.865Z,8.18
2022-12-04T06:57:15.605Z,7.88
2022-12-04T06:59:43.424Z,8.50
2022-12-04T07:02:11.887Z,7.68
2022-12-04T07:04:41.285Z,8.77
2022-12-04T07:09:39.807Z,7.75
2022-12-04T07:12:07.964Z,7.88
2022-12-04T07:14:35.803Z,8.10
2022-12-04T07:17:03.624Z,8.38
2022-12-04T07:19:31.483Z,7.80
2022-12-04T07:22:00.605Z,8.90
2022-12-04T07:24:28.387Z,8.10
2022-12-04T07:26:56.189Z,7.35
2022-12-04T07:29:23.959Z,8.98
2022-12-04T07:31:51.815Z,8.27
2022-12-04T07:34:19.690Z,7.78
2022-12-04T07:36:47.507Z,7.93
2022-12-04T07:39:16.665Z,6.88
2022-12-04T07:41:44.412Z,7.18
2022-12-04T07:44:14.877Z,8.60
2022-12-04T07:46:42.672Z,8.32
2022-12-04T07:49:12.741Z,8.13
2022-12-04T07:51:40.537Z,7.00
2022-12-04T07:54:09.315Z,9.05
2022-12-04T07:56:38.448Z,8.05
2022-12-04T07:59:06.200Z,9.40
2022-12-04T08:01:34.285Z,9.60
2022-12-04T08:04:03.261Z,7.93
2022-12-04T08:06:37.213Z,9.23
2022-12-04T08:09:09.832Z,8.70
2022-12-04T08:11:39.781Z,7.65
2022-12-04T08:16:36.608Z,8.82
2022-12-04T08:19:05.425Z,9.43
2022-12-04T08:21:34.529Z,8.75
2022-12-04T08:24:02.938Z,9.10
2022-12-04T08:26:32.268Z,9.13
2022-12-04T08:31:32.928Z,8.90
2022-12-04T08:34:03.282Z,9.02
2022-12-04T08:36:31.102Z,9.43
2022-12-04T08:38:59.322Z,8.00
2022-12-04T08:41:27.993Z,8.25
2022-12-04T08:43:57.767Z,9.85
2022-12-04T08:46:28.326Z,10.00
2022-12-04T08:48:56.868Z,9.40
2022-12-04T08:51:26.334Z,9.17
2022-12-04T08:56:22.552Z,9.45
2022-12-04T08:58:50.506Z,8.02
2022-12-04T09:01:18.777Z,7.57
2022-12-04T09:03:48.078Z,9.97
2022-12-04T09:06:16.776Z,10.02
2022-12-04T09:08:44.616Z,7.70
2022-12-04T09:11:14.475Z,7.93
2022-12-04T09:13:43.225Z,9.75
2022-12-04T09:16:14.291Z,9.38
2022-12-04T09:18:42.251Z,9.95
2022-12-04T09:21:13.141Z,10.90
2022-12-04T09:23:41.173Z,9.15
2022-12-04T09:26:21.592Z,9.98
2022-12-04T09:28:49.865Z,8.52
2022-12-04T09:31:18.700Z,8.77
2022-12-04T09:33:46.741Z,8.65
2022-12-04T09:36:16.951Z,8.05
2022-12-04T09:38:45.809Z,8.73
2022-12-04T09:41:28.722Z,9.02
2022-12-04T09:43:59.550Z,8.60
2022-12-04T09:46:32.499Z,9.55
2022-12-04T09:49:08.776Z,9.52
2022-12-04T09:51:45.190Z,8.48
2022-12-04T09:54:19.135Z,9.50
2022-12-04T09:56:56.491Z,9.90
2022-12-04T09:59:27.758Z,11.10
2022-12-04T10:02:00.868Z,11.15
2022-12-04T10:04:28.813Z,10.75
2022-12-04T10:07:03.296Z,9.75
2022-12-04T10:09:40.202Z,9.57
2022-12-04T10:12:16.038Z,9.25
2022-12-04T10:14:55.323Z,9.23
2022-12-04T10:20:18.347Z,10.70
2022-12-04T10:22:59.625Z,10.40
2022-12-04T10:25:28.073Z,9.57
2022-12-04T10:28:01.020Z,9.85
2022-12-04T10:30:31.980Z,9.60
2022-12-04T10:33:05.499Z,8.70
2022-12-04T10:35:36.315Z,9.65
2022-12-04T10:38:12.259Z,10.63
2022-12-04T10:40:50.503Z,10.25
2022-12-04T10:43:28.648Z,9.93
2022-12-04T10:45:56.458Z,9.02
2022-12-04T10:48:27.538Z,11.02
2022-12-04T10:50:55.331Z,9.30
2022-12-04T10:53:30.886Z,9.43
2022-12-04T10:56:10.360Z,9.25
2022-12-04T10:58:38.420Z,9.57
2022-12-04T11:01:08.173Z,10.55
2022-12-04T11:03:36.544Z,9.77
2022-12-04T11:06:06.529Z,10.00
2022-12-04T11:08:39.605Z,10.13
2022-12-04T11:11:11.251Z,9.07
2022-12-04T11:13:39.941Z,10.55
2022-12-04T11:16:08.657Z,10.50
2022-12-04T11:18:49.102Z,9.00
2022-12-04T11:21:20.048Z,9.75
2022-12-04T11:23:51.268Z,10.05
2022-12-04T11:26:30.064Z,9.50
2022-12-04T11:29:01.799Z,10.82
2022-12-04T11:31:30.524Z,10.68
2022-12-04T11:34:01.319Z,12.65
2022-12-04T11:36:31.707Z,11.77
2022-12-04T11:39:08.952Z,10.90
2022-12-04T11:41:36.759Z,11.35
2022-12-04T11:44:06.808Z,9.73
2022-12-04T11:46:35.504Z,11.70
2022-12-04T11:49:04.048Z,11.40
2022-12-04T11:51:47.870Z,12.23
2022-12-04T11:54:29.074Z,11.88
2022-12-04T11:57:07.892Z,12.18
2022-12-04T11:59:49.628Z,12.10
2022-12-04T12:02:43.379Z,13.68
2022-12-04T12:05:25.150Z,12.25
2022-12-04T12:08:02.456Z,12.07
2022-12-04T12:10:44.239Z,13.77
2022-12-04T12:13:23.354Z,12.82
2022-12-04T12:16:08.299Z,11.23
2022-12-04T12:18:55.345Z,12.75
2022-12-04T12:21:27.050Z,14.27
2022-12-04T12:24:14.636Z,14.40
2022-12-04T12:26:50.535Z,13.65
2022-12-04T12:29:34.882Z,13.18
2022-12-04T12:32:17.102Z,14.30
2022-12-04T12:34:47.236Z,12.20
2022-12-04T12:37:23.608Z,13.45
2022-12-04T12:39:59.708Z,13.10
2022-12-04T12:42:33.758Z,12.88
2022-12-04T12:45:07.564Z,13.57
2022-12-04T12:47:42.232Z,13.60
2022-12-04T12:50:16.190Z,13.65
2022-12-04T12:52:48.747Z,12.52
2022-12-04T12:55:20.985Z,12.25
2022-12-04T12:57:57.781Z,12.10
2022-12-04T13:00:26.537Z,12.70
2022-12-04T13:02:59.389Z,12.68
2022-12-04T13:05:31.359Z,12.80
2022-12-04T13:08:07.205Z,12.57
2022-12-04T13:10:41.209Z,13.30
2022-12-04T13:13:16.571Z,13.82
2022-12-04T13:15:48.824Z,12.88
2022-12-04T13:18:25.271Z,13.20
2022-12-04T13:20:56.132Z,12.40
2022-12-04T13:23:45.962Z,12.93
2022-12-04T13:26:23.930Z,11.82
2022-12-04T13:28:58.740Z,12.18
2022-12-04T13:31:34.524Z,13.35
2022-12-04T13:34:39.037Z,11.43
2022-12-04T13:37:33.868Z,13.50
2022-12-04T13:40:31.998Z,11.65
2022-12-04T13:43:21.613Z,11.75
2022-12-04T13:45:53.362Z,12.82
2022-12-04T13:48:29.897Z,12.48
2022-12-04T13:51:37.167Z,13.82
2022-12-04T13:54:22.754Z,12.30
2022-12-04T13:56:52.522Z,15.60
2022-12-04T13:59:23.868Z,13.82
2022-12-04T14:01:55.584Z,13.10
2022-12-04T14:04:26.390Z,12.32
2022-12-04T14:06:57.114Z,12.15
2022-12-04T14:09:28.397Z,12.93
2022-12-04T14:12:01.404Z,11.05
2022-12-04T14:14:31.398Z,11.20
2022-12-04T14:17:01.095Z,11.73
2022-12-04T14:19:34.537Z,11.60
2022-12-04T14:22:02.933Z,11.10
2022-12-04T14:24:34.967Z,11.23
2022-12-04T14:27:11.522Z,11.63
2022-12-04T14:29:48.621Z,10.23
2022-12-04T14:32:22.481Z,10.38
2022-12-04T14:34:51.299Z,11.90
2022-12-04T14:37:25.376Z,13.52
2022-12-04T14:39:53.998Z,13.48
2022-12-04T14:42:25.399Z,13.25
2022-12-04T14:44:56.756Z,13.95
2022-12-04T14:47:39.853Z,13.90
2022-12-04T14:50:21.668Z,16.67
2022-12-04T14:52:55.637Z,16.08
2022-12-04T14:55:32.881Z,16.45
2022-12-04T14:58:22.076Z,16.35
2022-12-04T15:00:54.287Z,17.13
2022-12-04T15:03:24.789Z,16.67
2022-12-04T15:05:53.725Z,17.70
2022-12-04T15:08:21.744Z,19.33
2022-12-04T15:11:09.100Z,15.63
2022-12-04T15:13:38.420Z,15.98
2022-12-04T15:18:39.767Z,17.40
2022-12-04T15:21:11.491Z,16.27
2022-12-04T15:23:42.416Z,16.67
2022-12-04T15:26:13.875Z,14.63
2022-12-04T15:28:46.352Z,16.75
2022-12-04T15:31:18.385Z,16.95
2022-12-04T15:33:49.768Z,16.40
2022-12-04T15:36:21.037Z,16.98
2022-12-04T15:38:50.413Z,17.83
2022-12-04T15:43:59.867Z,18.70
2022-12-04T15:46:33.375Z,16.70
2022-12-04T15:49:17.749Z,17.45
2022-12-04T15:51:46.854Z,18.63
2022-12-04T15:54:19.548Z,17.55
2022-12-04T15:56:58.483Z,19.20
2022-12-04T15:59:28.122Z,18.42
2022-12-04T16:01:56.534Z,20.73
2022-12-04T16:04:35.384Z,19.65
2022-12-04T16:07:03.364Z,20.23
2022-12-04T16:09:32.150Z,19.77
2022-12-04T16:12:02.217Z,19.40
2022-12-04T16:14:30.429Z,18.13
2022-12-04T16:17:05.919Z,19.02
2022-12-04T16:19:37.367Z,19.60
2022-12-04T16:22:12.043Z,18.70
2022-12-04T16:24:39.888Z,18.10
2022-12-04T16:27:12.536Z,16.45
2022-12-04T16:29:41.050Z,16.20
2022-12-04T16:32:12.280Z,15.73
2022-12-04T16:34:41.564Z,15.50
2022-12-04T16:39:41.563Z,17.02
2022-12-04T16:42:16.167Z,16.63
2022-12-04T16:44:44.051Z,15.02
2022-12-04T16:47:13.341Z,15.05
2022-12-04T16:54:39.693Z,14.88
2022-12-04T16:57:07.550Z,13.65
2022-12-04T16:59:35.685Z,14.30
2022-12-04T17:02:05.362Z,13.93
2022-12-04T17:04:33.205Z,13.73
2022-12-04T17:07:02.321Z,13.65
2022-12-04T17:09:30.168Z,13.27
2022-12-04T17:11:57.953Z,13.43
2022-12-04T17:14:25.739Z,13.82
2022-12-04T17:16:54.890Z,13.27
2022-12-04T17:21:50.532Z,14.82
2022-12-04T17:24:19.654Z,15.00
2022-12-04T17:26:47.408Z,12.98
2022-12-04T17:29:15.170Z,14.23
2022-12-04T17:31:43.032Z,13.10
2022-12-04T17:34:10.864Z,12.75
2022-12-04T17:36:38.663Z,15.18
2022-12-04T17:39:08.010Z,13.82
2022-12-04T17:44:04.868Z,13.48
2022-12-04T17:46:32.763Z,13.60
2022-12-04T17:49:05.453Z,14.63
2022-12-04T17:51:35.746Z,16.08
2022-12-04T17:54:03.581Z,14.57
2022-12-04T17:56:31.448Z,14.10
2022-12-04T17:59:00.570Z,15.23
2022-12-04T18:01:30.403Z,15.10
2022-12-04T18:03:59.742Z,14.93
2022-12-04T18:06:29.141Z,14.10
2022-12-04T18:11:27.877Z,15.50
2022-12-04T18:13:58.082Z,14.32
2022-12-04T18:16:28.368Z,13.73
2022-12-04T18:18:56.813Z,14.82
2022-12-04T18:21:25.131Z,13.02
2022-12-04T18:23:53.529Z,14.75
2022-12-04T18:26:23.094Z,13.63
2022-12-04T18:28:52.795Z,13.95
2022-12-04T18:31:20.814Z,13.38
2022-12-04T18:33:51.525Z,12.40
2022-12-04T18:36:21.435Z,14.98
2022-12-04T18:38:54.799Z,13.52
2022-12-04T18:41:22.716Z,12.95
2022-12-04T18:43:51.151Z,15.13
2022-12-04T18:46:19.669Z,15.80
2022-12-04T18:48:48.695Z,16.92
2022-12-04T18:51:21.544Z,16.52
2022-12-04T18:53:52.339Z,18.30
2022-12-04T18:56:20.227Z,15.75
2022-12-04T18:58:48.570Z,15.13
2022-12-04T19:01:19.325Z,13.80
2022-12-04T19:03:48.134Z,14.43
2022-12-04T19:06:16.556Z,15.93
2022-12-04T19:08:45.774Z,15.87
2022-12-04T19:11:15.380Z,16.08
2022-12-04T19:13:43.711Z,17.40
2022-12-04T19:16:12.955Z,16.33
2022-12-04T19:21:10.191Z,14.32
2022-12-04T19:23:38.324Z,14.93
2022-12-04T19:26:07.591Z,15.27
2022-12-04T19:28:35.517Z,16.08
2022-12-04T19:31:03.440Z,17.52
2022-12-04T19:33:31.238Z,15.02
2022-12-04T19:36:00.893Z,16.25
2022-12-04T19:38:28.959Z,18.63
2022-12-04T19:41:05.075Z,16.75
2022-12-04T19:43:34.283Z,18.50
2022-12-04T19:46:02.423Z,18.38
2022-12-04T19:48:30.252Z,17.90
2022-12-04T19:51:03.243Z,16.75
2022-12-04T19:53:33.060Z,18.27
2022-12-04T19:56:05.543Z,16.90
2022-12-04T19:58:35.764Z,20.25
2022-12-04T20:01:04.268Z,19.10
2022-12-04T20:03:32.767Z,18.60
2022-12-04T20:06:03.337Z,20.60
2022-12-04T20:08:31.294Z,21.83
2022-12-04T20:11:03.734Z,21.35
2022-12-04T20:13:31.576Z,22.50
2022-12-04T20:16:04.080Z,20.85
2022-12-04T20:18:32.456Z,20.27
2022-12-04T20:21:02.065Z,20.77
2022-12-04T20:23:30.137Z,18.40
2022-12-04T20:25:57.954Z,20.50
2022-12-04T20:28:25.776Z,19.95
2022-12-04T20:30:54.360Z,22.23
2022-12-04T20:33:23.595Z,20.42
2022-12-04T20:36:25.489Z,24.17
2022-12-04T20:38:55.272Z,21.70
2022-12-04T20:41:23.368Z,21.23
2022-12-04T20:43:51.494Z,19.50
2022-12-04T20:46:21.849Z,19.92
2022-12-04T20:48:53.347Z,19.55
2022-12-04T20:51:23.308Z,20.10
2022-12-04T20:53:52.246Z,18.40
2022-12-04T20:56:21.879Z,20.48
2022-12-04T20:58:49.694Z,19.73
2022-12-04T21:01:19.508Z,19.73
2022-12-04T21:03:48.324Z,19.35
2022-12-04T21:06:20.049Z,19.00
2022-12-04T21:08:54.022Z,18.67
2022-12-04T21:11:22.012Z,17.33
2022-12-04T21:14:07.412Z,17.88
2022-12-04T21:16:35.599Z,17.50
2022-12-04T21:19:03.717Z,18.30
2022-12-04T21:21:32.877Z,19.17
2022-12-04T21:24:00.769Z,19.08
2022-12-04T21:26:30.971Z,18.08
2022-12-04T21:28:59.446Z,19.73
2022-12-04T21:31:28.810Z,20.93
2022-12-04T21:33:57.963Z,19.95
2022-12-04T21:36:26.684Z,19.77
2022-12-04T21:38:56.190Z,18.05
2022-12-04T21:41:42.076Z,17.23
2022-12-04T21:44:11.394Z,18.15
2022-12-04T21:49:07.263Z,18.77
2022-12-04T21:54:24.672Z,17.40
2022-12-04T21:56:52.477Z,18.38
2022-12-04T21:59:20.401Z,17.70
2022-12-04T22:01:48.300Z,18.23
2022-12-04T22:04:16.429Z,18.02
2022-12-04T22:06:44.418Z,16.80
2022-12-04T22:09:13.214Z,17.10
2022-12-04T22:11:42.818Z,16.70
2022-12-04T22:14:11.703Z,23.10
2022-12-04T22:16:42.457Z,20.00
2022-12-04T22:19:12.050Z,17.75
2022-12-04T22:21:40.430Z,17.23
2022-12-04T22:24:10.398Z,17.92
2022-12-04T22:26:39.104Z,16.80
2022-12-04T22:29:34.304Z,17.13
2022-12-04T22:34:23.903Z,16.75
2022-12-04T22:36:51.669Z,16.75
2022-12-04T22:39:19.430Z,16.52
2022-12-04T22:41:47.195Z,17.50
2022-12-04T22:44:16.273Z,17.95
2022-12-04T22:46:44.169Z,17.08
2022-12-04T22:49:12.016Z,16.95
2022-12-04T22:51:39.785Z,16.85
2022-12-04T22:54:08.114Z,17.35
2022-12-04T22:56:35.976Z,16.75
2022-12-04T22:59:03.806Z,17.45
2022-12-04T23:01:34.444Z,16.98
2022-12-04T23:04:03.331Z,17.13
2022-12-04T23:06:33.239Z,18.10
2022-12-04T23:09:02.686Z,17.25
2022-12-04T23:14:00.943Z,16.42
2022-12-04T23:16:31.552Z,18.08
2022-12-04T23:19:01.012Z,18.00
2022-12-04T23:23:58.016Z,17.53
2022-12-04T23:26:27.642Z,17.52
2022-12-04T23:28:56.102Z,16.63
2022-12-04T23:31:24.663Z,16.90
2022-12-04T23:33:52.580Z,17.48
2022-12-04T23:36:22.098Z,17.42
2022-12-04T23:38:50.585Z,16.45
2022-12-04T23:41:20.638Z,15.90
2022-12-04T23:43:49.448Z,17.08
2022-12-04T23:46:20.526Z,15.60
2022-12-04T23:48:48.729Z,17.17
2022-12-04T23:51:18.056Z,18.73
2022-12-04T23:58:44.668Z,17.10
